createdAt,value
2023-04-08T00:00:41.318Z,41.09
2023-04-08T00:01:41.397Z,42.47
2023-04-08T00:02:41.520Z,37.94
2023-04-08T00:03:41.532Z,40.24
2023-04-08T00:04:41.591Z,42.76
2023-04-08T00:05:41.617Z,42.55
2023-04-08T00:06:41.682Z,40.77
2023-04-08T00:07:41.720Z,38.38
2023-04-08T00:08:41.725Z,42.81
2023-04-08T00:09:41.791Z,39.71
2023-04-08T00:10:41.840Z,40.28
2023-04-08T00:11:41.907Z,40.76
2023-04-08T00:12:41.940Z,42.67
2023-04-08T00:13:41.999Z,41.42
2023-04-08T00:14:42.074Z,42.90
2023-04-08T00:15:42.119Z,43.76
2023-04-08T00:16:42.198Z,39.68
2023-04-08T00:17:42.261Z,39.95
2023-04-08T00:18:42.288Z,42.38
2023-04-08T00:19:42.340Z,43.98
2023-04-08T00:20:42.412Z,42.99
2023-04-08T00:21:42.448Z,44.58
2023-04-08T00:22:42.492Z,42.69
2023-04-08T00:23:42.533Z,42.29
2023-04-08T00:24:42.570Z,43.98
2023-04-08T00:25:42.676Z,42.03
2023-04-08T00:26:42.680Z,42.64
2023-04-08T00:27:42.769Z,40.20
2023-04-08T00:28:42.832Z,43.10
2023-04-08T00:29:42.877Z,41.27
2023-04-08T00:30:42.970Z,40.77
2023-04-08T00:31:42.980Z,38.45
2023-04-08T00:32:43.087Z,43.28
2023-04-08T00:33:43.146Z,44.85
2023-04-08T00:34:43.161Z,40.68
2023-04-08T00:35:43.318Z,44.61
2023-04-08T00:36:43.281Z,40.42
2023-04-08T00:37:43.342Z,43.71
2023-04-08T00:38:43.400Z,43.39
2023-04-08T00:39:43.442Z,42.49
2023-04-08T00:40:43.533Z,43.22
2023-04-08T00:41:43.556Z,38.64
2023-04-08T00:42:43.625Z,41.69
2023-04-08T00:43:43.640Z,42.95
2023-04-08T00:44:43.700Z,44.26
2023-04-08T00:45:43.758Z,41.09
2023-04-08T00:46:43.847Z,44.92
2023-04-08T00:47:43.840Z,43.05
2023-04-08T00:48:43.882Z,43.22
2023-04-08T00:49:43.903Z,41.75
2023-04-08T00:50:43.984Z,44.29
2023-04-08T00:51:44.057Z,39.45
2023-04-08T00:52:44.071Z,42.20
2023-04-08T00:53:44.143Z,41.92
2023-04-08T00:54:44.214Z,40.98
2023-04-08T00:55:44.257Z,41.02
2023-04-08T00:56:44.296Z,44.36
2023-04-08T00:57:44.364Z,40.60
2023-04-08T00:58:44.395Z,42.79
2023-04-08T00:59:44.445Z,45.50
2023-04-08T01:00:44.520Z,40.68
2023-04-08T01:01:44.704Z,40.55
2023-04-08T01:02:44.738Z,42.17
2023-04-08T01:03:44.672Z,40.35
2023-04-08T01:04:44.655Z,44.21
2023-04-08T01:05:44.749Z,40.69
2023-04-08T01:06:44.789Z,44.33
2023-04-08T01:07:44.863Z,42.20
2023-04-08T01:08:44.905Z,42.85
2023-04-08T01:09:44.968Z,45.25
2023-04-08T01:10:45.015Z,41.42
2023-04-08T01:11:45.073Z,43.48
2023-04-08T01:12:45.137Z,45.51
2023-04-08T01:13:45.194Z,43.22
2023-04-08T01:14:45.278Z,44.18
2023-04-08T01:15:45.444Z,42.99
2023-04-08T01:16:45.383Z,40.25
2023-04-08T01:17:45.494Z,41.68
2023-04-08T01:18:45.525Z,43.65
2023-04-08T01:19:45.563Z,43.04
2023-04-08T01:20:45.638Z,47.56
2023-04-08T01:21:45.660Z,43.90
2023-04-08T01:22:45.700Z,42.31
2023-04-08T01:23:45.751Z,45.10
2023-04-08T01:24:45.837Z,44.25
2023-04-08T01:25:45.874Z,43.64
2023-04-08T01:26:45.929Z,43.32
2023-04-08T01:27:45.999Z,46.02
2023-04-08T01:28:46.043Z,41.40
2023-04-08T01:29:46.133Z,42.61
2023-04-08T01:30:46.307Z,48.68
2023-04-08T01:31:46.256Z,42.62
2023-04-08T01:32:46.332Z,45.65
2023-04-08T01:33:46.390Z,46.45
2023-04-08T01:34:46.453Z,49.36
2023-04-08T01:35:46.651Z,43.94
2023-04-08T01:36:46.583Z,47.42
2023-04-08T01:37:46.615Z,44.17
2023-04-08T01:38:46.697Z,45.55
2023-04-08T01:39:46.722Z,46.96
2023-04-08T01:40:46.811Z,45.75
2023-04-08T01:41:46.909Z,45.93
2023-04-08T01:42:46.957Z,44.41
2023-04-08T01:43:47.023Z,45.09
2023-04-08T01:44:47.071Z,44.02
2023-04-08T01:45:47.116Z,46.00
2023-04-08T01:46:47.243Z,44.01
2023-04-08T01:47:47.462Z,47.37
2023-04-08T01:48:47.280Z,45.03
2023-04-08T01:49:47.372Z,48.72
2023-04-08T01:50:47.431Z,47.21
2023-04-08T01:51:47.489Z,48.33
2023-04-08T01:52:47.588Z,45.06
2023-04-08T01:53:47.649Z,46.89
2023-04-08T01:54:47.693Z,45.46
2023-04-08T01:55:47.773Z,46.02
2023-04-08T01:56:47.835Z,46.56
2023-04-08T01:57:47.891Z,43.67
2023-04-08T01:58:48.047Z,47.12
2023-04-08T01:59:47.981Z,45.90
2023-04-08T02:00:48.056Z,45.41
2023-04-08T02:01:48.192Z,44.43
2023-04-08T02:02:48.360Z,45.48
2023-04-08T02:03:48.273Z,46.60
2023-04-08T02:04:49.282Z,47.63
2023-04-08T02:05:48.303Z,46.48
2023-04-08T02:06:48.326Z,47.69
2023-04-08T02:07:48.392Z,46.14
2023-04-08T02:08:48.686Z,44.94
2023-04-08T02:09:48.466Z,46.50
2023-04-08T02:10:48.539Z,44.80
2023-04-08T02:11:48.594Z,44.08
2023-04-08T02:12:48.679Z,46.12
2023-04-08T02:13:48.709Z,47.96
2023-04-08T02:14:48.802Z,45.53
2023-04-08T02:15:48.827Z,46.88
2023-04-08T02:16:48.968Z,46.08
2023-04-08T02:17:49.002Z,47.97
2023-04-08T02:18:49.172Z,47.20
2023-04-08T02:19:49.081Z,42.95
2023-04-08T02:20:49.114Z,48.04
2023-04-08T02:21:49.199Z,43.88
2023-04-08T02:22:49.269Z,48.12
2023-04-08T02:23:49.292Z,45.36
2023-04-08T02:24:49.377Z,48.31
2023-04-08T02:25:49.421Z,44.74
2023-04-08T02:26:49.437Z,46.76
2023-04-08T02:27:49.530Z,45.89
2023-04-08T02:28:49.753Z,46.22
2023-04-08T02:29:49.650Z,46.49
2023-04-08T02:30:49.712Z,46.53
2023-04-08T02:31:49.846Z,43.96
2023-04-08T02:32:49.864Z,45.52
2023-04-08T02:33:49.870Z,46.22
2023-04-08T02:34:49.942Z,46.36
2023-04-08T02:35:50.072Z,46.81
2023-04-08T02:36:50.046Z,47.98
2023-04-08T02:37:50.068Z,46.05
2023-04-08T02:38:50.385Z,44.15
2023-04-08T02:39:50.202Z,48.69
2023-04-08T02:40:50.266Z,49.04
2023-04-08T02:41:50.295Z,47.04
2023-04-08T02:42:50.360Z,43.07
2023-04-08T02:43:50.419Z,48.36
2023-04-08T02:44:50.471Z,49.61
2023-04-08T02:45:50.565Z,45.96
2023-04-08T02:46:50.592Z,45.07
2023-04-08T02:47:50.707Z,45.26
2023-04-08T02:48:51.001Z,46.64
2023-04-08T02:49:50.809Z,46.61
2023-04-08T02:50:50.885Z,43.78
2023-04-08T02:51:50.935Z,46.27
2023-04-08T02:52:51.007Z,48.26
2023-04-08T02:53:51.096Z,47.60
2023-04-08T02:54:51.129Z,46.10
2023-04-08T02:55:51.181Z,46.98
2023-04-08T02:56:51.245Z,48.70
2023-04-08T02:57:51.296Z,49.06
2023-04-08T02:58:51.494Z,46.79
2023-04-08T02:59:51.424Z,47.42
2023-04-08T03:00:51.527Z,48.10
2023-04-08T03:01:51.629Z,48.08
2023-04-08T03:02:51.973Z,46.33
2023-04-08T03:03:51.727Z,50.84
2023-04-08T03:04:51.738Z,50.69
2023-04-08T03:05:51.806Z,47.97
2023-04-08T03:06:51.893Z,47.19
2023-04-08T03:07:51.944Z,47.72
2023-04-08T03:08:52.106Z,47.13
2023-04-08T03:09:52.114Z,50.50
2023-04-08T03:10:52.124Z,45.41
2023-04-08T03:11:52.193Z,48.19
2023-04-08T03:12:52.238Z,46.18
2023-04-08T03:13:52.316Z,51.52
2023-04-08T03:14:52.394Z,47.62
2023-04-08T03:15:52.407Z,47.75
2023-04-08T03:16:52.566Z,47.57
2023-04-08T03:17:52.603Z,48.10
2023-04-08T03:18:52.729Z,46.94
2023-04-08T03:19:52.623Z,46.71
2023-04-08T03:20:52.692Z,46.66
2023-04-08T03:21:52.777Z,50.65
2023-04-08T03:22:52.846Z,50.54
2023-04-08T03:23:52.910Z,49.29
2023-04-08T03:24:52.953Z,44.08
2023-04-08T03:25:53.009Z,48.45
2023-04-08T03:26:53.107Z,47.97
2023-04-08T03:27:53.159Z,48.29
2023-04-08T03:28:53.216Z,48.65
2023-04-08T03:29:53.264Z,48.69
2023-04-08T03:30:53.358Z,49.55
2023-04-08T03:31:53.406Z,49.55
2023-04-08T03:32:53.566Z,47.45
2023-04-08T03:33:53.498Z,49.56
2023-04-08T03:34:53.639Z,48.75
2023-04-08T03:35:53.670Z,46.28
2023-04-08T03:36:53.707Z,50.01
2023-04-08T03:37:53.741Z,47.46
2023-04-08T03:38:53.803Z,48.76
2023-04-08T03:39:53.856Z,47.66
2023-04-08T03:40:53.893Z,46.09
2023-04-08T03:41:53.970Z,50.49
2023-04-08T03:42:54.003Z,48.30
2023-04-08T03:43:54.050Z,48.56
2023-04-08T03:44:54.088Z,49.81
2023-04-08T03:45:54.220Z,48.36
2023-04-08T03:46:54.219Z,46.08
2023-04-08T03:47:54.292Z,47.54
2023-04-08T03:48:54.298Z,46.48
2023-04-08T03:49:54.363Z,46.90
2023-04-08T03:50:54.387Z,49.66
2023-04-08T03:51:54.412Z,48.37
2023-04-08T03:52:54.485Z,52.27
2023-04-08T03:53:54.520Z,48.90
2023-04-08T03:54:54.577Z,47.65
2023-04-08T03:55:54.632Z,49.61
2023-04-08T03:56:54.659Z,50.53
2023-04-08T03:57:54.698Z,48.94
2023-04-08T03:58:54.710Z,50.67
2023-04-08T03:59:54.767Z,44.62
2023-04-08T04:00:54.813Z,45.91
2023-04-08T04:01:54.870Z,48.91
2023-04-08T04:02:54.978Z,48.92
2023-04-08T04:03:55.033Z,45.17
2023-04-08T04:04:55.119Z,49.05
2023-04-08T04:05:55.037Z,46.79
2023-04-08T04:06:55.070Z,46.20
2023-04-08T04:07:55.084Z,47.99
2023-04-08T04:08:55.195Z,50.22
2023-04-08T04:09:55.228Z,47.91
2023-04-08T04:10:55.251Z,51.15
2023-04-08T04:11:55.320Z,47.53
2023-04-08T04:12:55.379Z,47.91
2023-04-08T04:13:55.421Z,48.66
2023-04-08T04:14:55.435Z,48.36
2023-04-08T04:15:55.514Z,50.21
2023-04-08T04:16:55.568Z,47.56
2023-04-08T04:17:55.638Z,46.10
2023-04-08T04:18:55.692Z,44.96
2023-04-08T04:19:55.742Z,45.98
2023-04-08T04:20:55.755Z,46.94
2023-04-08T04:21:55.828Z,48.83
2023-04-08T04:22:55.900Z,48.06
2023-04-08T04:23:55.963Z,46.28
2023-04-08T04:24:55.998Z,48.11
2023-04-08T04:25:56.057Z,52.38
2023-04-08T04:26:56.101Z,49.16
2023-04-08T04:27:56.156Z,50.45
2023-04-08T04:28:56.168Z,50.21
2023-04-08T04:29:56.242Z,51.79
2023-04-08T04:30:56.859Z,48.56
2023-04-08T04:31:56.320Z,51.04
2023-04-08T04:32:56.437Z,49.95
2023-04-08T04:33:56.425Z,50.70
2023-04-08T04:34:56.446Z,52.93
2023-04-08T04:35:56.544Z,50.08
2023-04-08T04:36:56.580Z,48.05
2023-04-08T04:37:56.606Z,51.38
2023-04-08T04:38:56.883Z,51.91
2023-04-08T04:39:56.740Z,50.57
2023-04-08T04:40:56.807Z,50.99
2023-04-08T04:41:56.849Z,50.81
2023-04-08T04:42:56.922Z,51.25
2023-04-08T04:43:56.988Z,52.99
2023-04-08T04:44:57.015Z,51.57
2023-04-08T04:45:57.191Z,52.79
2023-04-08T04:46:57.147Z,52.50
2023-04-08T04:47:57.275Z,51.14
2023-04-08T04:48:57.282Z,53.15
2023-04-08T04:49:57.334Z,50.07
2023-04-08T04:50:57.417Z,52.47
2023-04-08T04:51:57.439Z,52.66
2023-04-08T04:52:57.491Z,54.29
2023-04-08T04:53:57.536Z,49.59
2023-04-08T04:54:57.642Z,49.97
2023-04-08T04:55:57.660Z,51.16
2023-04-08T04:56:57.708Z,49.41
2023-04-08T04:57:57.757Z,50.21
2023-04-08T04:58:57.800Z,51.38
2023-04-08T04:59:57.857Z,49.06
2023-04-08T05:00:57.912Z,51.27
2023-04-08T05:01:58.066Z,52.08
2023-04-08T05:02:58.088Z,49.90
2023-04-08T05:03:58.058Z,52.08
2023-04-08T05:04:58.169Z,50.02
2023-04-08T05:05:58.193Z,50.52
2023-04-08T05:06:58.223Z,49.55
2023-04-08T05:07:58.296Z,53.85
2023-04-08T05:08:58.353Z,50.43
2023-04-08T05:09:58.360Z,51.01
2023-04-08T05:10:58.416Z,50.26
2023-04-08T05:11:58.413Z,52.66
2023-04-08T05:12:58.492Z,48.40
2023-04-08T05:13:58.514Z,55.02
2023-04-08T05:14:58.572Z,49.63
2023-04-08T05:15:58.674Z,50.65
2023-04-08T05:16:58.698Z,47.38
2023-04-08T05:18:00.405Z,46.65
2023-04-08T05:18:58.797Z,49.55
2023-04-08T05:19:58.918Z,50.78
2023-04-08T05:20:58.894Z,49.44
2023-04-08T05:21:58.901Z,49.47
2023-04-08T05:22:58.957Z,50.24
2023-04-08T05:23:59.025Z,49.51
2023-04-08T05:24:59.040Z,51.26
2023-04-08T05:25:59.104Z,48.70
2023-04-08T05:26:59.162Z,48.33
2023-04-08T05:27:59.194Z,51.07
2023-04-08T05:28:59.207Z,50.87
2023-04-08T05:29:59.285Z,52.59
2023-04-08T05:30:59.351Z,52.33
2023-04-08T05:31:59.357Z,49.77
2023-04-08T05:33:00.388Z,48.97
2023-04-08T05:33:59.464Z,50.00
2023-04-08T05:34:59.514Z,52.55
2023-04-08T05:35:59.566Z,49.54
2023-04-08T05:36:59.597Z,52.98
2023-04-08T05:37:59.621Z,50.22
2023-04-08T05:39:00.761Z,52.66
2023-04-08T05:39:59.748Z,49.41
2023-04-08T05:40:59.771Z,51.22
2023-04-08T05:41:59.826Z,50.93
2023-04-08T05:42:59.849Z,51.57
2023-04-08T05:43:59.891Z,54.39
2023-04-08T05:44:59.910Z,47.78
2023-04-08T05:45:59.972Z,52.00
2023-04-08T05:47:00.033Z,51.21
2023-04-08T05:48:00.080Z,52.88
2023-04-08T05:49:00.121Z,52.85
2023-04-08T05:50:00.185Z,50.92
2023-04-08T05:51:00.234Z,48.29
2023-04-08T05:52:00.291Z,48.37
2023-04-08T05:53:00.344Z,51.33
2023-04-08T05:54:00.373Z,48.55
2023-04-08T05:55:00.453Z,51.11
2023-04-08T05:56:00.486Z,49.81
2023-04-08T05:57:00.527Z,51.08
2023-04-08T05:58:00.568Z,48.60
2023-04-08T05:59:00.636Z,50.15
2023-04-08T06:00:00.702Z,50.52
2023-04-08T06:01:00.693Z,49.71
2023-04-08T06:02:00.764Z,49.77
2023-04-08T06:03:01.019Z,49.66
2023-04-08T06:04:00.899Z,50.50
2023-04-08T06:05:00.953Z,51.69
2023-04-08T06:06:00.924Z,50.20
2023-04-08T06:07:01.002Z,50.93
2023-04-08T06:08:01.081Z,53.65
2023-04-08T06:09:01.099Z,50.11
2023-04-08T06:10:01.222Z,50.57
2023-04-08T06:11:01.220Z,49.96
2023-04-08T06:12:01.265Z,51.01
2023-04-08T06:13:01.335Z,52.78
2023-04-08T06:14:01.344Z,50.16
2023-04-08T06:15:01.421Z,55.69
2023-04-08T06:16:01.460Z,47.82
2023-04-08T06:17:01.563Z,51.67
2023-04-08T06:18:01.637Z,48.13
2023-04-08T06:19:01.612Z,50.71
2023-04-08T06:20:01.650Z,48.60
2023-04-08T06:21:01.713Z,51.14
2023-04-08T06:22:01.776Z,49.66
2023-04-08T06:23:01.987Z,49.94
2023-04-08T06:24:01.931Z,49.52
2023-04-08T06:25:01.971Z,49.05
2023-04-08T06:26:02.019Z,49.01
2023-04-08T06:27:02.095Z,50.82
2023-04-08T06:28:02.108Z,51.60
2023-04-08T06:29:02.168Z,51.42
2023-04-08T06:30:02.245Z,48.05
2023-04-08T06:31:02.292Z,48.24
2023-04-08T06:32:02.371Z,51.35
2023-04-08T06:33:02.402Z,50.41
2023-04-08T06:34:02.430Z,48.81
2023-04-08T06:35:02.448Z,50.21
2023-04-08T06:36:02.560Z,50.18
2023-04-08T06:37:02.824Z,52.00
2023-04-08T06:38:02.628Z,48.04
2023-04-08T06:39:02.644Z,51.98
2023-04-08T06:40:02.729Z,49.02
2023-04-08T06:41:02.761Z,45.72
2023-04-08T06:42:02.803Z,47.62
2023-04-08T06:43:02.879Z,48.86
2023-04-08T06:44:02.913Z,50.18
2023-04-08T06:45:02.975Z,49.24
2023-04-08T06:46:03.058Z,46.24
2023-04-08T06:47:03.029Z,46.20
2023-04-08T06:48:03.120Z,47.13
2023-04-08T06:49:03.076Z,47.16
2023-04-08T06:50:03.150Z,48.07
2023-04-08T06:51:03.166Z,47.32
2023-04-08T06:52:03.192Z,49.01
2023-04-08T06:53:03.250Z,46.57
2023-04-08T06:54:03.293Z,48.43
2023-04-08T06:55:03.380Z,46.17
2023-04-08T06:56:03.380Z,51.12
2023-04-08T06:57:03.452Z,49.35
2023-04-08T06:58:03.514Z,48.86
2023-04-08T06:59:04.088Z,48.86
2023-04-08T07:00:03.606Z,47.34
2023-04-08T07:01:03.748Z,46.64
2023-04-08T07:02:03.963Z,47.61
2023-04-08T07:03:03.789Z,46.44
2023-04-08T07:04:03.839Z,46.90
2023-04-08T07:05:03.838Z,45.45
2023-04-08T07:06:03.899Z,48.95
2023-04-08T07:07:03.966Z,50.23
2023-04-08T07:08:04.071Z,47.51
2023-04-08T07:09:04.095Z,46.55
2023-04-08T07:10:04.156Z,48.25
2023-04-08T07:11:04.198Z,48.63
2023-04-08T07:12:04.255Z,46.05
2023-04-08T07:13:04.339Z,46.29
2023-04-08T07:14:04.436Z,46.38
2023-04-08T07:15:04.468Z,48.00
2023-04-08T07:16:04.542Z,49.98
2023-04-08T07:17:04.646Z,48.70
2023-04-08T07:18:04.804Z,48.09
2023-04-08T07:19:04.734Z,47.12
2023-04-08T07:20:04.837Z,47.87
2023-04-08T07:21:05.181Z,49.88
2023-04-08T07:22:04.909Z,44.86
2023-04-08T07:23:04.959Z,43.92
2023-04-08T07:24:05.057Z,50.35
2023-04-08T07:25:05.110Z,49.79
2023-04-08T07:26:05.142Z,47.18
2023-04-08T07:27:05.194Z,44.44
2023-04-08T07:28:05.293Z,48.76
2023-04-08T07:29:05.333Z,44.75
2023-04-08T07:30:05.452Z,46.63
2023-04-08T07:31:05.521Z,49.15
2023-04-08T07:32:05.563Z,47.67
2023-04-08T07:33:05.664Z,45.77
2023-04-08T07:34:05.681Z,49.31
2023-04-08T07:35:05.739Z,44.42
2023-04-08T07:36:05.789Z,45.69
2023-04-08T07:37:05.856Z,47.93
2023-04-08T07:38:05.951Z,48.96
2023-04-08T07:39:06.011Z,47.70
2023-04-08T07:40:06.060Z,48.18
2023-04-08T07:41:06.112Z,45.03
2023-04-08T07:42:06.181Z,45.82
2023-04-08T07:43:06.247Z,45.34
2023-04-08T07:44:06.289Z,43.02
2023-04-08T07:45:06.364Z,47.90
2023-04-08T07:46:06.527Z,48.39
2023-04-08T07:47:06.472Z,48.00
2023-04-08T07:48:06.621Z,45.69
2023-04-08T07:49:06.646Z,49.14
2023-04-08T07:50:06.716Z,47.04
2023-04-08T07:51:08.458Z,46.87
2023-04-08T07:52:06.762Z,52.92
2023-04-08T07:53:08.201Z,48.53
2023-04-08T07:54:06.734Z,48.99
2023-04-08T07:55:06.706Z,48.45
2023-04-08T07:56:06.731Z,49.58
2023-04-08T07:57:06.704Z,44.90
2023-04-08T07:58:06.718Z,46.43
2023-04-08T07:59:06.697Z,46.74
2023-04-08T08:00:06.691Z,49.46
2023-04-08T08:01:06.702Z,48.10
2023-04-08T08:02:06.691Z,47.93
2023-04-08T08:03:06.687Z,46.90
2023-04-08T08:04:06.786Z,44.70
2023-04-08T08:05:06.687Z,46.48
2023-04-08T08:06:06.627Z,47.30
2023-04-08T08:07:06.681Z,46.87
2023-04-08T08:08:06.735Z,47.42
2023-04-08T08:09:06.754Z,46.87
2023-04-08T08:10:06.868Z,47.70
2023-04-08T08:11:06.928Z,49.13
2023-04-08T08:12:07.008Z,46.65
2023-04-08T08:13:07.071Z,48.01
2023-04-08T08:14:07.101Z,47.13
2023-04-08T08:15:07.153Z,45.26
2023-04-08T08:16:07.298Z,47.09
2023-04-08T08:17:07.317Z,47.99
2023-04-08T08:18:07.402Z,49.27
2023-04-08T08:19:07.428Z,47.22
2023-04-08T08:20:07.534Z,45.87
2023-04-08T08:21:07.585Z,45.51
2023-04-08T08:22:07.626Z,46.58
2023-04-08T08:23:07.688Z,47.22
2023-04-08T08:24:07.770Z,45.91
2023-04-08T08:25:07.819Z,49.46
2023-04-08T08:26:07.872Z,44.93
2023-04-08T08:27:07.926Z,44.77
2023-04-08T08:28:08.036Z,48.75
2023-04-08T08:29:08.047Z,47.66
2023-04-08T08:30:08.122Z,47.05
2023-04-08T08:31:08.205Z,44.99
2023-04-08T08:32:08.218Z,47.61
2023-04-08T08:33:08.312Z,48.39
2023-04-08T08:34:08.343Z,47.20
2023-04-08T08:35:08.406Z,48.13
2023-04-08T08:36:08.569Z,46.52
2023-04-08T08:37:08.533Z,45.08
2023-04-08T08:38:08.584Z,47.28
2023-04-08T08:39:08.639Z,45.95
2023-04-08T08:40:08.698Z,48.69
2023-04-08T08:41:08.802Z,46.24
2023-04-08T08:42:08.830Z,45.69
2023-04-08T08:43:08.928Z,45.68
2023-04-08T08:44:08.995Z,47.93
2023-04-08T08:45:09.059Z,46.98
2023-04-08T08:46:09.087Z,48.09
2023-04-08T08:47:09.144Z,45.53
2023-04-08T08:48:09.343Z,48.36
2023-04-08T08:49:09.322Z,45.11
2023-04-08T08:50:09.363Z,46.09
2023-04-08T08:51:09.401Z,44.60
2023-04-08T08:52:09.481Z,43.91
2023-04-08T08:53:09.555Z,48.05
2023-04-08T08:54:09.621Z,45.02
2023-04-08T08:55:27.664Z,47.90
2023-04-08T08:57:09.688Z,48.00
2023-04-08T08:58:09.688Z,48.09
2023-04-08T08:59:09.666Z,46.29
2023-04-08T09:00:09.668Z,49.11
2023-04-08T09:01:09.649Z,46.43
2023-04-08T09:02:09.755Z,46.36
2023-04-08T09:03:09.677Z,47.67
2023-04-08T09:04:09.806Z,45.60
2023-04-08T09:05:09.795Z,46.88
2023-04-08T09:06:11.635Z,46.39
2023-04-08T09:07:09.639Z,46.45
2023-04-08T09:08:09.646Z,46.48
2023-04-08T09:09:09.587Z,44.06
2023-04-08T09:10:09.603Z,45.75
2023-04-08T09:11:09.595Z,49.00
2023-04-08T09:12:09.576Z,48.36
2023-04-08T09:13:09.589Z,47.57
2023-04-08T09:14:09.574Z,47.30
2023-04-08T09:15:09.585Z,44.79
2023-04-08T09:16:09.591Z,45.04
2023-04-08T09:17:09.549Z,44.83
2023-04-08T09:18:09.690Z,45.41
2023-04-08T09:19:09.522Z,46.06
2023-04-08T09:20:09.521Z,46.32
2023-04-08T09:21:09.542Z,44.76
2023-04-08T09:22:09.547Z,46.29
2023-04-08T09:23:09.535Z,45.85
2023-04-08T09:24:09.534Z,43.61
2023-04-08T09:25:09.506Z,45.59
2023-04-08T09:26:09.502Z,46.84
2023-04-08T09:27:09.489Z,46.63
2023-04-08T09:28:09.472Z,45.51
2023-04-08T09:29:25.012Z,44.39
2023-04-08T09:30:10.485Z,44.73
2023-04-08T09:31:09.489Z,44.93
2023-04-08T09:32:09.467Z,44.97
2023-04-08T09:33:09.471Z,44.41
2023-04-08T09:34:09.422Z,45.92
2023-04-08T09:35:09.424Z,46.25
2023-04-08T09:36:09.435Z,43.65
2023-04-08T09:37:09.440Z,46.76
2023-04-08T09:38:09.510Z,45.46
2023-04-08T09:39:09.574Z,45.44
2023-04-08T09:40:09.630Z,45.74
2023-04-08T09:41:09.702Z,42.50
2023-04-08T09:42:09.731Z,45.99
2023-04-08T09:43:09.782Z,47.66
2023-04-08T09:44:09.863Z,44.76
2023-04-08T09:45:09.913Z,43.92
2023-04-08T09:46:10.024Z,43.85
2023-04-08T09:47:10.032Z,43.79
2023-04-08T09:48:10.113Z,46.24
2023-04-08T09:49:10.163Z,43.43
2023-04-08T09:50:10.243Z,44.74
2023-04-08T09:51:10.303Z,46.37
2023-04-08T09:52:10.362Z,41.01
2023-04-08T09:53:10.414Z,45.36
2023-04-08T09:54:10.486Z,45.09
2023-04-08T09:55:10.512Z,44.99
2023-04-08T09:56:10.580Z,45.11
2023-04-08T09:57:10.682Z,43.33
2023-04-08T09:58:10.716Z,42.28
2023-04-08T09:59:10.786Z,42.54
2023-04-08T10:00:11.011Z,43.13
2023-04-08T10:01:10.921Z,45.87
2023-04-08T10:02:11.022Z,41.96
2023-04-08T10:03:11.199Z,47.05
2023-04-08T10:04:11.119Z,44.76
2023-04-08T10:05:11.187Z,46.27
2023-04-08T10:06:11.171Z,42.59
2023-04-08T10:07:11.228Z,43.90
2023-04-08T10:08:11.314Z,43.91
2023-04-08T10:09:11.340Z,48.43
2023-04-08T10:10:11.426Z,46.50
2023-04-08T10:11:11.517Z,43.25
2023-04-08T10:12:11.571Z,44.82
2023-04-08T10:13:11.599Z,46.61
2023-04-08T10:14:11.667Z,44.27
2023-04-08T10:15:11.684Z,45.51
2023-04-08T10:16:11.768Z,42.15
2023-04-08T10:17:11.823Z,40.93
2023-04-08T10:18:11.887Z,43.19
2023-04-08T10:19:11.959Z,41.61
2023-04-08T10:20:12.014Z,40.85
2023-04-08T10:21:12.060Z,42.94
2023-04-08T10:22:12.154Z,42.34
2023-04-08T10:23:12.242Z,43.31
2023-04-08T10:24:12.288Z,43.13
2023-04-08T10:25:12.342Z,42.36
2023-04-08T10:26:12.394Z,43.55
2023-04-08T10:27:12.427Z,41.98
2023-04-08T10:28:12.483Z,42.92
2023-04-08T10:29:12.539Z,46.57
2023-04-08T10:30:12.634Z,44.50
2023-04-08T10:31:12.651Z,43.82
2023-04-08T10:32:12.775Z,40.99
2023-04-08T10:33:12.806Z,46.43
2023-04-08T10:34:12.860Z,39.91
2023-04-08T10:35:12.908Z,43.09
2023-04-08T10:36:12.970Z,44.11
2023-04-08T10:37:13.069Z,44.65
2023-04-08T10:38:13.124Z,42.18
2023-04-08T10:39:13.177Z,41.84
2023-04-08T10:40:13.255Z,42.03
2023-04-08T10:41:13.293Z,45.57
2023-04-08T10:42:13.377Z,44.09
2023-04-08T10:43:13.425Z,41.81
2023-04-08T10:44:13.470Z,41.88
2023-04-08T10:45:13.618Z,42.75
2023-04-08T10:46:13.649Z,43.99
2023-04-08T10:47:13.661Z,42.38
2023-04-08T10:48:13.706Z,44.67
2023-04-08T10:49:13.788Z,44.27
2023-04-08T10:50:13.848Z,43.59
2023-04-08T10:51:13.906Z,41.12
2023-04-08T10:52:13.992Z,43.10
2023-04-08T10:53:14.101Z,40.79
2023-04-08T10:54:14.096Z,41.51
2023-04-08T10:55:14.136Z,40.71
2023-04-08T10:56:14.235Z,45.07
2023-04-08T10:57:14.252Z,44.33
2023-04-08T10:58:14.324Z,43.29
2023-04-08T10:59:14.436Z,42.70
2023-04-08T11:00:14.461Z,44.30
2023-04-08T11:01:14.584Z,40.47
2023-04-08T11:02:14.660Z,46.06
2023-04-08T11:03:15.787Z,38.84
2023-04-08T11:04:14.759Z,44.19
2023-04-08T11:05:14.780Z,40.25
2023-04-08T11:06:14.802Z,42.95
2023-04-08T11:07:14.855Z,43.75
2023-04-08T11:08:14.921Z,42.91
2023-04-08T11:09:14.991Z,41.34
2023-04-08T11:10:15.064Z,41.15
2023-04-08T11:11:15.139Z,41.81
2023-04-08T11:12:15.184Z,41.30
2023-04-08T11:13:15.235Z,41.07
2023-04-08T11:14:15.317Z,41.74
2023-04-08T11:15:15.355Z,44.19
2023-04-08T11:16:18.449Z,41.72
2023-04-08T11:17:15.397Z,45.27
2023-04-08T11:18:15.402Z,44.99
2023-04-08T11:19:15.378Z,42.72
2023-04-08T11:20:15.361Z,42.84
2023-04-08T11:21:15.397Z,43.85
2023-04-08T11:22:15.379Z,43.92
2023-04-08T11:23:15.373Z,40.68
2023-04-08T11:24:15.330Z,44.36
2023-04-08T11:25:15.364Z,42.43
2023-04-08T11:26:15.344Z,41.03
2023-04-08T11:27:15.362Z,42.22
2023-04-08T11:28:15.341Z,42.47
2023-04-08T11:29:15.348Z,42.18
2023-04-08T11:30:15.313Z,40.59
2023-04-08T11:31:15.410Z,44.51
2023-04-08T11:32:15.275Z,43.47
2023-04-08T11:33:15.317Z,40.54
2023-04-08T11:34:15.299Z,40.18
2023-04-08T11:35:15.285Z,42.95
2023-04-08T11:36:15.316Z,41.26
2023-04-08T11:37:15.283Z,41.77
2023-04-08T11:38:15.270Z,41.99
2023-04-08T11:39:15.902Z,41.66
2023-04-08T11:40:15.287Z,40.80
2023-04-08T11:41:15.252Z,40.13
2023-04-08T11:42:15.266Z,42.08
2023-04-08T11:43:15.286Z,40.72
2023-04-08T11:44:15.262Z,41.68
2023-04-08T11:45:15.239Z,39.87
2023-04-08T11:46:15.297Z,38.88
2023-04-08T11:47:15.211Z,41.94
2023-04-08T11:48:15.241Z,39.74
2023-04-08T11:49:15.194Z,40.46
2023-04-08T11:50:15.254Z,44.78
2023-04-08T11:51:15.393Z,41.68
2023-04-08T11:52:15.351Z,40.69
2023-04-08T11:53:15.421Z,39.67
2023-04-08T11:54:15.494Z,40.34
2023-04-08T11:55:15.581Z,37.82
2023-04-08T11:56:15.617Z,39.74
2023-04-08T11:57:15.630Z,40.46
2023-04-08T11:58:15.808Z,39.61
2023-04-08T11:59:15.783Z,37.47
2023-04-08T12:00:15.809Z,38.43
2023-04-08T12:01:15.882Z,40.09
2023-04-08T12:02:16.003Z,37.91
2023-04-08T12:03:16.040Z,41.31
2023-04-08T12:04:16.158Z,39.72
2023-04-08T12:05:16.131Z,39.68
2023-04-08T12:06:16.153Z,39.73
2023-04-08T12:07:16.207Z,42.11
2023-04-08T12:08:16.314Z,40.77
2023-04-08T12:09:16.356Z,40.39
2023-04-08T12:10:16.401Z,41.60
2023-04-08T12:11:20.036Z,42.35
2023-04-08T12:12:16.458Z,45.85
2023-04-08T12:13:16.473Z,40.97
2023-04-08T12:14:16.433Z,41.85
2023-04-08T12:15:16.432Z,38.62
2023-04-08T12:16:16.445Z,35.94
2023-04-08T12:17:16.421Z,40.49
2023-04-08T12:18:16.431Z,40.67
2023-04-08T12:19:16.426Z,40.64
2023-04-08T12:20:16.404Z,40.64
2023-04-08T12:21:16.377Z,42.03
2023-04-08T12:22:16.387Z,40.67
2023-04-08T12:23:16.391Z,40.11
2023-04-08T12:24:16.357Z,40.71
2023-04-08T12:25:16.427Z,39.52
2023-04-08T12:26:16.353Z,39.47
2023-04-08T12:27:16.358Z,38.16
2023-04-08T12:28:16.365Z,40.04
2023-04-08T12:29:16.366Z,40.62
2023-04-08T12:30:16.709Z,40.33
2023-04-08T12:31:16.327Z,40.33
2023-04-08T12:32:16.313Z,39.65
2023-04-08T12:33:16.325Z,41.62
2023-04-08T12:34:16.302Z,39.72
2023-04-08T12:35:16.307Z,42.23
2023-04-08T12:36:16.319Z,39.85
2023-04-08T12:37:16.287Z,38.89
2023-04-08T12:38:16.284Z,39.29
2023-04-08T12:39:16.341Z,37.04
2023-04-08T12:40:16.382Z,41.70
2023-04-08T12:41:16.449Z,40.08
2023-04-08T12:42:16.511Z,38.85
2023-04-08T12:43:16.555Z,39.15
2023-04-08T12:44:16.597Z,40.37
2023-04-08T12:45:16.718Z,38.93
2023-04-08T12:46:16.727Z,42.02
2023-04-08T12:47:16.776Z,40.42
2023-04-08T12:48:16.834Z,40.91
2023-04-08T12:49:16.873Z,40.27
2023-04-08T12:50:16.926Z,42.94
2023-04-08T12:51:16.962Z,37.77
2023-04-08T12:52:17.011Z,42.19
2023-04-08T12:53:17.078Z,43.13
2023-04-08T12:54:17.123Z,40.26